createdAt,value
2023-03-05T00:00:14.567Z,14.43
2023-03-05T00:02:41.986Z,16.20
2023-03-05T00:05:09.354Z,13.80
2023-03-05T00:07:35.941Z,13.80
2023-03-05T00:10:04.705Z,14.13
2023-03-05T00:12:31.677Z,14.57
2023-03-05T00:14:58.149Z,13.73
2023-03-05T00:17:24.648Z,14.00
2023-03-05T00:19:51.071Z,14.93
2023-03-05T00:22:17.843Z,12.97
2023-03-05T00:24:44.285Z,14.60
2023-03-05T00:27:10.868Z,13.03
2023-03-05T00:29:37.452Z,14.17
2023-03-05T00:32:04.137Z,13.53
2023-03-05T00:34:31.706Z,12.90
2023-03-05T00:36:58.272Z,13.33
2023-03-05T00:39:24.880Z,13.33
2023-03-05T00:41:52.538Z,14.20
2023-03-05T00:44:19.137Z,13.97
2023-03-05T00:46:45.664Z,13.80
2023-03-05T00:49:12.225Z,14.93
2023-03-05T00:51:39.199Z,13.03
2023-03-05T00:54:06.440Z,14.00
2023-03-05T00:56:33.187Z,15.60
2023-03-05T00:58:59.825Z,15.57
2023-03-05T01:01:26.650Z,15.40
2023-03-05T01:03:53.347Z,17.00
2023-03-05T01:06:19.890Z,14.70
2023-03-05T01:08:46.606Z,15.67
2023-03-05T01:11:13.390Z,15.37
2023-03-05T01:13:39.978Z,15.47
2023-03-05T01:16:07.111Z,16.20
2023-03-05T01:18:33.843Z,14.83
2023-03-05T01:21:00.731Z,14.63
2023-03-05T01:23:27.293Z,14.63
2023-03-05T01:25:58.768Z,15.70
2023-03-05T01:28:26.053Z,15.27
2023-03-05T01:30:52.934Z,15.47
2023-03-05T01:33:19.550Z,14.13
2023-03-05T01:35:47.763Z,15.27
2023-03-05T01:38:16.138Z,13.53
2023-03-05T01:40:43.954Z,14.30
2023-03-05T01:43:13.343Z,15.53
2023-03-05T01:46:18.098Z,14.60
2023-03-05T01:48:47.387Z,15.30
2023-03-05T01:51:14.037Z,14.90
2023-03-05T01:53:40.925Z,15.73
2023-03-05T01:56:07.681Z,15.20
2023-03-05T01:58:34.219Z,15.00
2023-03-05T02:01:02.150Z,16.00
2023-03-05T02:03:28.873Z,15.20
2023-03-05T02:05:55.422Z,14.80
2023-03-05T02:08:22.199Z,14.00
2023-03-05T02:10:51.137Z,15.00
2023-03-05T02:13:24.747Z,16.37
2023-03-05T02:15:53.193Z,16.20
2023-03-05T02:18:20.504Z,14.10
2023-03-05T02:20:54.010Z,15.37
2023-03-05T02:23:22.451Z,13.80
2023-03-05T02:25:49.021Z,15.80
2023-03-05T02:28:24.032Z,15.80
2023-03-05T02:30:51.075Z,13.83
2023-03-05T02:33:18.939Z,14.77
2023-03-05T02:35:46.555Z,14.90
2023-03-05T02:38:14.898Z,14.80
2023-03-05T02:40:41.838Z,15.10
2023-03-05T02:43:08.561Z,16.30
2023-03-05T02:45:35.092Z,14.87
2023-03-05T02:48:01.681Z,16.03
2023-03-05T02:50:28.898Z,17.60
2023-03-05T02:52:55.376Z,16.93
2023-03-05T02:55:22.856Z,15.43
2023-03-05T02:57:49.391Z,17.57
2023-03-05T03:00:16.505Z,16.67
2023-03-05T03:02:43.163Z,16.73
2023-03-05T03:05:09.888Z,15.70
2023-03-05T03:07:36.730Z,16.70
2023-03-05T03:10:06.675Z,16.10
2023-03-05T03:12:40.046Z,17.40
2023-03-05T03:15:07.721Z,15.40
2023-03-05T03:17:35.938Z,16.10
2023-03-05T03:20:04.797Z,16.67
2023-03-05T03:22:31.605Z,16.17
2023-03-05T03:24:58.172Z,16.03
2023-03-05T03:27:24.658Z,14.13
2023-03-05T03:29:51.185Z,16.13
2023-03-05T03:32:17.847Z,15.03
2023-03-05T03:34:44.798Z,15.50
2023-03-05T03:37:11.487Z,14.53
2023-03-05T03:39:38.007Z,14.70
2023-03-05T03:42:04.750Z,16.40
2023-03-05T03:44:31.293Z,15.23
2023-03-05T03:46:57.811Z,15.17
2023-03-05T03:49:25.895Z,16.33
2023-03-05T03:51:58.317Z,14.93
2023-03-05T03:54:25.529Z,15.20
2023-03-05T03:56:52.785Z,15.10
2023-03-05T03:59:19.483Z,15.40
2023-03-05T04:01:46.451Z,16.73
2023-03-05T04:04:13.616Z,15.63
2023-03-05T04:06:40.551Z,15.80
2023-03-05T04:09:08.379Z,15.50
2023-03-05T04:11:35.886Z,16.10
2023-03-05T04:14:02.588Z,16.00
2023-03-05T04:16:29.247Z,17.40
2023-03-05T04:18:55.876Z,16.37
2023-03-05T04:21:22.331Z,17.30
2023-03-05T04:23:48.928Z,16.93
2023-03-05T04:26:15.417Z,16.90
2023-03-05T04:28:42.134Z,14.43
2023-03-05T04:31:08.626Z,15.40
2023-03-05T04:33:35.073Z,14.50
2023-03-05T04:36:01.603Z,15.47
2023-03-05T04:38:28.127Z,16.27
2023-03-05T04:40:54.668Z,13.73
2023-03-05T04:43:21.288Z,15.20
2023-03-05T04:45:47.926Z,17.03
2023-03-05T04:48:14.501Z,15.27
2023-03-05T04:50:41.042Z,16.10
2023-03-05T04:53:07.764Z,13.70
2023-03-05T04:55:34.323Z,14.67
2023-03-05T04:58:00.851Z,14.80
2023-03-05T05:00:27.375Z,15.80
2023-03-05T05:02:54.160Z,15.63
2023-03-05T05:05:24.070Z,15.50
2023-03-05T05:07:53.655Z,14.73
2023-03-05T05:10:20.224Z,16.30
2023-03-05T05:12:47.023Z,17.07
2023-03-05T05:15:13.587Z,14.90
2023-03-05T05:17:40.325Z,14.23
2023-03-05T05:20:08.017Z,15.20
2023-03-05T05:22:35.203Z,15.50
2023-03-05T05:25:01.848Z,14.73
2023-03-05T05:27:28.419Z,15.50
2023-03-05T05:29:55.180Z,15.40
2023-03-05T05:32:24.076Z,16.07
2023-03-05T05:34:57.854Z,15.33
2023-03-05T05:37:24.738Z,15.17
2023-03-05T05:39:51.514Z,15.20
2023-03-05T05:42:19.387Z,15.77
2023-03-05T05:44:47.035Z,15.73
2023-03-05T05:47:14.885Z,16.03
2023-03-05T05:49:41.438Z,14.87
2023-03-05T05:52:08.159Z,16.70
2023-03-05T05:54:34.750Z,14.93
2023-03-05T05:57:01.513Z,15.83
2023-03-05T05:59:28.109Z,15.63
2023-03-05T06:01:54.701Z,15.60
2023-03-05T06:04:21.255Z,15.13
2023-03-05T06:06:47.950Z,14.63
2023-03-05T06:09:14.687Z,15.93
2023-03-05T06:11:41.272Z,14.10
2023-03-05T06:14:08.838Z,16.77
2023-03-05T06:16:35.443Z,18.73
2023-03-05T06:19:04.746Z,15.47
2023-03-05T06:21:31.733Z,16.73
2023-03-05T06:24:01.139Z,15.00
2023-03-05T06:26:27.768Z,15.00
2023-03-05T06:28:55.101Z,17.93
2023-03-05T06:31:26.052Z,17.80
2023-03-05T06:33:54.728Z,17.30
2023-03-05T06:36:22.938Z,16.60
2023-03-05T06:38:53.036Z,16.73
2023-03-05T06:41:22.763Z,16.93
2023-03-05T06:43:49.637Z,17.30
2023-03-05T06:46:30.583Z,17.13
2023-03-05T06:48:59.512Z,17.13
2023-03-05T06:51:30.220Z,15.30
2023-03-05T06:54:00.968Z,17.23
2023-03-05T06:56:27.593Z,19.00
2023-03-05T06:58:54.284Z,17.73
2023-03-05T07:01:21.834Z,16.60
2023-03-05T07:03:53.031Z,17.70
2023-03-05T07:06:20.722Z,18.10
2023-03-05T07:08:47.979Z,16.63
2023-03-05T07:11:17.114Z,15.80
2023-03-05T07:13:43.926Z,17.80
2023-03-05T07:16:15.223Z,17.60
2023-03-05T07:18:42.226Z,16.70
2023-03-05T07:21:09.634Z,17.20
2023-03-05T07:23:36.766Z,19.90
2023-03-05T07:26:04.496Z,17.53
2023-03-05T07:28:31.310Z,16.33
2023-03-05T07:31:02.696Z,17.83
2023-03-05T07:33:29.562Z,20.90
2023-03-05T07:35:56.256Z,19.20
2023-03-05T07:38:23.052Z,20.60
2023-03-05T07:40:49.969Z,19.83
2023-03-05T07:43:16.569Z,18.30
2023-03-05T07:45:43.884Z,18.43
2023-03-05T07:48:16.696Z,18.63
2023-03-05T07:50:43.993Z,19.57
2023-03-05T07:53:10.574Z,18.70
2023-03-05T07:55:46.282Z,17.50
2023-03-05T07:58:14.175Z,19.30
2023-03-05T08:00:40.840Z,19.13
2023-03-05T08:03:07.633Z,18.37
2023-03-05T08:05:34.131Z,17.13
2023-03-05T08:08:00.731Z,19.20
2023-03-05T08:10:27.325Z,20.67
2023-03-05T08:12:54.281Z,18.70
2023-03-05T08:15:20.826Z,20.13
2023-03-05T08:17:47.546Z,20.37
2023-03-05T08:20:14.087Z,19.80
2023-03-05T08:22:40.654Z,19.60
2023-03-05T08:25:08.245Z,19.97
2023-03-05T08:27:39.324Z,20.40
2023-03-05T08:30:07.170Z,19.53
2023-03-05T08:32:33.829Z,21.10
2023-03-05T08:35:01.672Z,19.30
2023-03-05T08:37:28.651Z,19.07
2023-03-05T08:39:56.267Z,19.13
2023-03-05T08:42:23.516Z,19.63
2023-03-05T08:44:50.028Z,20.53
2023-03-05T08:47:18.396Z,20.13
2023-03-05T08:49:45.065Z,19.63
2023-03-05T08:52:11.833Z,18.60
2023-03-05T08:54:38.427Z,19.47
2023-03-05T08:57:05.130Z,18.53
2023-03-05T08:59:32.630Z,19.60
2023-03-05T09:02:02.697Z,22.60
2023-03-05T09:04:29.270Z,19.93
2023-03-05T09:06:57.260Z,21.20
2023-03-05T09:09:24.814Z,21.70
2023-03-05T09:11:52.367Z,26.10
2023-03-05T09:14:19.084Z,19.77
2023-03-05T09:16:45.671Z,18.97
2023-03-05T09:19:13.111Z,25.03
2023-03-05T09:21:39.671Z,17.37
2023-03-05T09:24:06.403Z,17.60
2023-03-05T09:26:32.871Z,14.90
2023-03-05T09:28:59.398Z,14.83
2023-03-05T09:31:26.173Z,16.23
2023-03-05T09:33:52.770Z,15.40
2023-03-05T09:36:27.648Z,14.20
2023-03-05T09:38:54.370Z,13.40
2023-03-05T09:41:30.353Z,13.97
2023-03-05T09:44:16.076Z,15.20
2023-03-05T09:46:53.323Z,15.57
2023-03-05T09:49:41.109Z,13.83
2023-03-05T09:52:15.758Z,18.07
2023-03-05T09:54:43.559Z,16.53
2023-03-05T09:57:19.969Z,13.83
2023-03-05T09:59:50.728Z,18.10
2023-03-05T10:02:18.868Z,18.03
2023-03-05T10:05:07.081Z,16.17
2023-03-05T10:07:39.116Z,16.00
2023-03-05T10:10:26.404Z,14.70
2023-03-05T10:12:56.685Z,14.33
2023-03-05T10:15:50.324Z,14.67
2023-03-05T10:18:38.743Z,18.17
2023-03-05T10:21:10.387Z,16.27
2023-03-05T10:24:01.026Z,16.27
2023-03-05T10:26:47.564Z,17.17
2023-03-05T10:29:40.672Z,27.27
2023-03-05T10:32:22.775Z,17.13
2023-03-05T10:35:17.225Z,15.93
2023-03-05T10:37:53.093Z,17.00
2023-03-05T10:40:44.609Z,16.50
2023-03-05T10:43:19.794Z,14.67
2023-03-05T10:45:51.190Z,13.10
2023-03-05T10:48:32.822Z,14.10
2023-03-05T10:51:29.522Z,14.70
2023-03-05T10:53:58.529Z,15.03
2023-03-05T10:56:28.704Z,14.87
2023-03-05T10:58:55.552Z,16.00
2023-03-05T11:01:25.337Z,15.73
2023-03-05T11:04:08.234Z,14.63
2023-03-05T11:06:42.795Z,14.70
2023-03-05T11:09:17.840Z,16.57
2023-03-05T11:12:01.768Z,16.20
2023-03-05T11:14:33.562Z,19.30
2023-03-05T11:17:22.070Z,14.60
2023-03-05T11:19:48.605Z,16.10
2023-03-05T11:22:22.878Z,16.13
2023-03-05T11:25:12.564Z,15.60
2023-03-05T11:27:50.983Z,14.63
2023-03-05T11:30:30.352Z,13.60
2023-03-05T11:33:10.580Z,14.93
2023-03-05T11:35:40.374Z,14.33
2023-03-05T11:38:14.287Z,15.63
2023-03-05T11:40:41.004Z,14.07
2023-03-05T11:43:14.793Z,13.97
2023-03-05T11:45:42.782Z,15.80
2023-03-05T11:48:13.869Z,15.83
2023-03-05T11:50:41.880Z,15.33
2023-03-05T11:53:32.888Z,15.80
2023-03-05T11:56:04.552Z,15.50
2023-03-05T11:58:54.835Z,13.23
2023-03-05T12:01:25.000Z,13.40
2023-03-05T12:03:52.376Z,13.00
2023-03-05T12:06:47.611Z,12.90
2023-03-05T12:09:14.026Z,13.37
2023-03-05T12:11:40.922Z,13.70
2023-03-05T12:14:19.415Z,11.93
2023-03-05T12:16:48.849Z,12.50
2023-03-05T12:19:40.536Z,14.53
2023-03-05T12:22:26.973Z,13.43
2023-03-05T12:24:53.523Z,12.93
2023-03-05T12:27:35.235Z,13.50
2023-03-05T12:30:03.183Z,13.63
2023-03-05T12:32:31.421Z,13.30
2023-03-05T12:34:59.436Z,11.90
2023-03-05T12:37:25.885Z,12.20
2023-03-05T12:40:04.818Z,12.83
2023-03-05T12:42:31.528Z,11.90
2023-03-05T12:45:10.280Z,11.90
2023-03-05T12:47:40.222Z,11.37
2023-03-05T12:50:25.558Z,11.80
2023-03-05T12:53:12.146Z,11.37
2023-03-05T12:55:47.712Z,10.20
2023-03-05T12:58:17.003Z,11.17
2023-03-05T13:00:46.530Z,10.73
2023-03-05T13:03:18.822Z,11.87
2023-03-05T13:05:51.821Z,10.57
2023-03-05T13:08:26.992Z,10.93
2023-03-05T13:11:00.789Z,11.20
2023-03-05T13:13:30.071Z,9.57
2023-03-05T13:15:57.098Z,10.97
2023-03-05T13:18:28.756Z,9.60
2023-03-05T13:21:13.551Z,11.23
2023-03-05T13:23:47.575Z,9.70
2023-03-05T13:26:19.427Z,9.63
2023-03-05T13:29:16.193Z,10.73
2023-03-05T13:32:03.512Z,9.47
2023-03-05T13:34:44.540Z,10.33
2023-03-05T13:37:21.616Z,10.70
2023-03-05T13:39:54.633Z,9.70
2023-03-05T13:42:24.663Z,8.47
2023-03-05T13:44:59.653Z,8.80
2023-03-05T13:47:28.886Z,8.40
2023-03-05T13:50:00.241Z,9.97
2023-03-05T13:52:40.303Z,8.77
2023-03-05T13:55:15.011Z,8.40
2023-03-05T13:57:47.641Z,7.90
2023-03-05T14:00:35.352Z,10.03
2023-03-05T14:03:34.653Z,8.60
2023-03-05T14:06:01.700Z,9.30
2023-03-05T14:08:28.293Z,9.10
2023-03-05T14:10:57.159Z,7.93
2023-03-05T14:13:27.029Z,8.63
2023-03-05T14:16:28.128Z,8.20
2023-03-05T14:19:02.455Z,8.30
2023-03-05T14:21:49.708Z,9.50
2023-03-05T14:24:26.961Z,7.37
2023-03-05T14:26:56.645Z,8.10
2023-03-05T14:29:25.564Z,9.70
2023-03-05T14:31:53.669Z,8.33
2023-03-05T14:34:42.301Z,8.40
2023-03-05T14:37:37.272Z,8.60
2023-03-05T14:40:19.673Z,9.20
2023-03-05T14:42:52.078Z,7.60
2023-03-05T14:45:21.222Z,8.60
2023-03-05T14:47:47.931Z,9.50
2023-03-05T14:50:20.061Z,9.07
2023-03-05T14:52:47.785Z,8.07
2023-03-05T14:55:16.743Z,8.50
2023-03-05T14:57:43.580Z,8.37
2023-03-05T15:00:17.314Z,9.40
2023-03-05T15:02:44.341Z,9.07
2023-03-05T15:05:11.826Z,9.73
2023-03-05T15:07:38.579Z,10.30
2023-03-05T15:10:07.828Z,9.40
2023-03-05T15:12:34.680Z,9.63
2023-03-05T15:15:05.217Z,8.63
2023-03-05T15:17:37.739Z,9.00
2023-03-05T15:20:10.264Z,9.33
2023-03-05T15:22:37.548Z,8.67
2023-03-05T15:25:04.489Z,9.20
2023-03-05T15:27:31.202Z,9.40
2023-03-05T15:29:59.146Z,8.67
2023-03-05T15:32:30.745Z,9.00
2023-03-05T15:34:58.593Z,17.87
2023-03-05T15:37:26.125Z,16.20
2023-03-05T15:39:53.527Z,31.20
2023-03-05T15:42:20.096Z,24.60
2023-03-05T15:44:46.776Z,10.83
2023-03-05T15:47:13.343Z,10.40
2023-03-05T15:49:39.911Z,10.43
2023-03-05T15:52:07.075Z,9.90
2023-03-05T15:54:35.633Z,10.80
2023-03-05T15:57:02.190Z,9.57
2023-03-05T15:59:28.761Z,9.67
2023-03-05T16:01:55.408Z,11.30
2023-03-05T16:04:22.175Z,11.30
2023-03-05T16:06:50.608Z,12.80
2023-03-05T16:09:18.529Z,10.43
2023-03-05T16:11:47.957Z,17.30
2023-03-05T16:14:18.041Z,11.40
2023-03-05T16:16:44.763Z,15.53
2023-03-05T16:19:14.008Z,8.87
2023-03-05T16:21:40.648Z,7.30
2023-03-05T16:24:07.490Z,12.57
2023-03-05T16:26:38.744Z,17.00
2023-03-05T16:29:05.423Z,10.80
2023-03-05T16:31:34.161Z,18.20
2023-03-05T16:34:01.759Z,13.37
2023-03-05T16:36:29.840Z,12.57
2023-03-05T16:38:58.638Z,8.83
2023-03-05T16:41:26.321Z,9.13
2023-03-05T16:43:53.875Z,8.70
2023-03-05T16:46:20.528Z,13.37
2023-03-05T16:48:47.100Z,10.53
2023-03-05T16:51:13.681Z,19.50
2023-03-05T16:53:40.756Z,14.97
2023-03-05T16:56:08.980Z,14.10
2023-03-05T16:58:36.580Z,13.10
2023-03-05T17:01:03.830Z,29.13
2023-03-05T17:03:30.696Z,23.33
2023-03-05T17:05:57.334Z,10.20
2023-03-05T17:08:24.428Z,12.77
2023-03-05T17:10:51.220Z,13.83
2023-03-05T17:13:17.824Z,8.57
2023-03-05T17:15:44.350Z,8.90
2023-03-05T17:18:10.918Z,7.73
2023-03-05T17:20:37.492Z,8.03
2023-03-05T17:23:04.055Z,8.73
2023-03-05T17:25:30.806Z,7.70
2023-03-05T17:27:57.304Z,7.93
2023-03-05T17:30:24.059Z,8.60
2023-03-05T17:32:53.904Z,8.60
2023-03-05T17:35:22.035Z,9.10
2023-03-05T17:37:49.151Z,8.73
2023-03-05T17:40:15.788Z,8.50
2023-03-05T17:42:42.366Z,7.33
2023-03-05T17:45:09.188Z,8.47
2023-03-05T17:47:35.998Z,7.93
2023-03-05T17:50:03.146Z,7.57
2023-03-05T17:52:30.358Z,9.00
2023-03-05T17:54:58.445Z,8.10
2023-03-05T17:57:26.092Z,7.67
2023-03-05T17:59:52.673Z,8.43
2023-03-05T18:02:19.160Z,7.20
2023-03-05T18:04:48.051Z,7.20
2023-03-05T18:07:14.681Z,7.43
2023-03-05T18:09:41.293Z,7.77
2023-03-05T18:12:07.843Z,7.10
2023-03-05T18:14:34.346Z,8.87
2023-03-05T18:17:00.944Z,8.73
2023-03-05T18:19:27.490Z,7.97
2023-03-05T18:21:54.061Z,8.07
2023-03-05T18:24:20.604Z,7.97
2023-03-05T18:26:47.176Z,8.33
2023-03-05T18:29:13.679Z,8.57
2023-03-05T18:31:40.277Z,7.60
2023-03-05T18:34:06.858Z,8.63
2023-03-05T18:36:33.481Z,8.10
2023-03-05T18:38:59.961Z,8.40
2023-03-05T18:41:28.228Z,7.83
2023-03-05T18:43:55.091Z,8.20
2023-03-05T18:46:21.778Z,9.50
2023-03-05T18:48:48.314Z,8.50
2023-03-05T18:51:16.962Z,10.00
2023-03-05T18:53:43.450Z,10.10
2023-03-05T18:56:10.538Z,8.80
2023-03-05T18:58:37.377Z,9.07
2023-03-05T19:01:04.892Z,9.40
2023-03-05T19:03:31.445Z,8.87
2023-03-05T19:05:58.076Z,8.20
2023-03-05T19:08:24.599Z,8.60
2023-03-05T19:10:51.405Z,9.03
2023-03-05T19:13:40.031Z,8.07
2023-03-05T19:16:14.830Z,8.27
2023-03-05T19:19:16.622Z,9.52
2023-03-05T19:21:44.820Z,8.80
2023-03-05T19:24:11.783Z,7.70
2023-03-05T19:26:39.252Z,8.53
2023-03-05T19:29:06.456Z,8.90
2023-03-05T19:31:33.342Z,9.10
2023-03-05T19:33:59.992Z,8.90
2023-03-05T19:36:26.588Z,8.70
2023-03-05T19:38:53.281Z,8.73
2023-03-05T19:41:21.801Z,8.80
2023-03-05T19:43:51.923Z,10.30
2023-03-05T19:46:18.585Z,8.80
2023-03-05T19:48:45.418Z,9.57
2023-03-05T19:51:14.922Z,8.50
2023-03-05T19:53:42.134Z,10.07
2023-03-05T19:56:09.945Z,8.83
2023-03-05T19:58:37.223Z,8.93
2023-03-05T20:01:10.313Z,9.27
2023-03-05T20:03:38.361Z,10.43
2023-03-05T20:06:08.089Z,8.97
2023-03-05T20:08:34.756Z,8.77
2023-03-05T20:11:01.938Z,9.00
2023-03-05T20:13:29.295Z,10.73
2023-03-05T20:15:56.055Z,9.70
2023-03-05T20:18:22.907Z,11.00
2023-03-05T20:20:53.532Z,9.80
2023-03-05T20:23:21.245Z,8.60
2023-03-05T20:25:48.804Z,10.27
2023-03-05T20:28:15.581Z,9.73
2023-03-05T20:30:43.936Z,9.93
2023-03-05T20:33:11.143Z,10.80
2023-03-05T20:35:37.765Z,10.50
2023-03-05T20:38:34.001Z,10.30
2023-03-05T20:41:03.051Z,10.97
2023-03-05T20:43:35.212Z,10.07
2023-03-05T20:46:02.326Z,10.23
2023-03-05T20:48:32.152Z,8.63
2023-03-05T20:51:01.905Z,11.07
2023-03-05T20:53:28.631Z,9.23
2023-03-05T20:55:55.124Z,10.57
2023-03-05T20:58:21.694Z,9.80
2023-03-05T21:00:48.185Z,10.23
2023-03-05T21:03:14.733Z,12.10
2023-03-05T21:05:41.251Z,9.30
2023-03-05T21:08:07.970Z,9.40
2023-03-05T21:10:37.826Z,10.27
2023-03-05T21:13:04.394Z,9.63
2023-03-05T21:15:31.536Z,9.67
2023-03-05T21:17:58.681Z,10.43
2023-03-05T21:20:28.770Z,10.27
2023-03-05T21:22:56.279Z,10.33
2023-03-05T21:25:25.991Z,10.17
2023-03-05T21:27:55.375Z,10.10
2023-03-05T21:30:22.566Z,9.90
2023-03-05T21:32:50.109Z,10.10
2023-03-05T21:35:21.365Z,9.30
2023-03-05T21:37:48.135Z,11.10
2023-03-05T21:40:17.364Z,9.33
2023-03-05T21:42:45.080Z,10.20
2023-03-05T21:45:13.963Z,10.00
2023-03-05T21:47:40.740Z,10.67
2023-03-05T21:50:08.136Z,9.67
2023-03-05T21:52:34.728Z,8.90
2023-03-05T21:55:01.340Z,9.80
2023-03-05T21:57:28.067Z,9.80
2023-03-05T21:59:54.974Z,9.20
2023-03-05T22:02:22.013Z,10.57
2023-03-05T22:04:48.578Z,10.17
2023-03-05T22:07:16.450Z,10.60
2023-03-05T22:09:43.023Z,8.73
2023-03-05T22:12:40.805Z,10.20
2023-03-05T22:15:08.083Z,9.40
2023-03-05T22:17:34.652Z,9.53
2023-03-05T22:20:01.275Z,8.93
2023-03-05T22:22:27.768Z,9.10
2023-03-05T22:24:54.329Z,9.00
2023-03-05T22:27:20.863Z,10.43
2023-03-05T22:29:47.510Z,9.03
2023-03-05T22:32:14.055Z,9.63
2023-03-05T22:34:40.580Z,9.93
2023-03-05T22:37:07.361Z,8.90
2023-03-05T22:39:33.936Z,9.23
2023-03-05T22:42:00.451Z,8.40
2023-03-05T22:44:26.992Z,9.70
2023-03-05T22:46:53.532Z,8.90
2023-03-05T22:49:20.036Z,9.60
2023-03-05T22:51:46.617Z,8.77
2023-03-05T22:54:13.241Z,9.37
2023-03-05T22:56:39.795Z,10.20
2023-03-05T22:59:06.357Z,9.00
2023-03-05T23:01:32.871Z,10.10
2023-03-05T23:04:39.014Z,9.67
2023-03-05T23:07:06.551Z,8.10
2023-03-05T23:09:33.150Z,9.10
2023-03-05T23:11:59.653Z,8.90
2023-03-05T23:14:26.219Z,8.07
2023-03-05T23:16:52.693Z,8.33
2023-03-05T23:19:19.172Z,9.90
2023-03-05T23:21:45.732Z,8.43
2023-03-05T23:24:12.268Z,8.33
2023-03-05T23:26:38.794Z,7.90
2023-03-05T23:29:05.292Z,8.53
2023-03-05T23:31:31.980Z,8.37
2023-03-05T23:33:59.130Z,9.70
2023-03-05T23:36:26.421Z,8.60
2023-03-05T23:38:57.597Z,9.27
2023-03-05T23:41:24.120Z,9.73
2023-03-05T23:43:50.805Z,9.37
2023-03-05T23:46:17.324Z,9.07
2023-03-05T23:48:43.990Z,9.13
2023-03-05T23:51:10.755Z,10.43
2023-03-05T23:53:37.700Z,10.40
2023-03-05T23:56:10.038Z,10.63
2023-03-05T23:58:37.857Z,10.23
